Time;durP1;ratioP1;P1;durP2;ratioP2;P2;SDS_P1;SDS_P2;PMS_P1;PMS_P2;Temp;Humidity;BMP_temperature;BMP_pressure;BME280_temperature;BME280_humidity;BME280_pressure;Samples;Min_cycle;Max_cycle;Signal;HPM_P1;HPM_P2
2022/11/04 00:02:05;;;;;;;22.33;11.77;;;;;;;10.23;73.68;99702.42;1681696;85;21050;-81
2022/11/04 00:04:33;;;;;;;19.87;10.37;;;;;;;10.19;73.68;99701.70;1699943;83;21112;-81
2022/11/04 00:06:59;;;;;;;19.00;11.13;;;;;;;10.19;73.82;99694.30;1699757;84;21044;-81
2022/11/04 00:09:29;;;;;;;22.67;11.17;;;;;;;10.16;73.88;99691.37;1699926;84;20973;-81
2022/11/04 00:14:42;;;;;;;22.43;11.80;;;;;;;10.16;74.15;99697.07;1682875;84;21008;-81
2022/11/04 00:17:18;;;;;;;22.87;11.10;;;;;;;10.14;74.12;99693.23;1699648;84;21155;-81
2022/11/04 00:33:49;;;;;;;21.13;11.27;;;;;;;10.10;74.96;99665.94;1699636;84;20988;-81
2022/11/04 00:36:16;;;;;;;18.90;11.17;;;;;;;10.10;75.01;99661.55;1699729;84;21434;-82
2022/11/04 00:38:44;;;;;;;17.07;11.23;;;;;;;10.11;75.02;99661.92;1699644;84;21505;-81
2022/11/04 00:57:36;;;;;;;17.17;10.93;;;;;;;9.95;75.47;99639.56;1699643;84;21013;-81
2022/11/04 01:00:04;;;;;;;18.67;11.37;;;;;;;9.89;75.63;99650.29;1700014;84;21536;-81
2022/11/04 01:02:31;;;;;;;18.80;11.10;;;;;;;9.85;75.71;99642.20;1699634;84;21213;-81
2022/11/04 01:04:58;;;;;;;17.27;10.33;;;;;;;9.81;75.94;99636.27;1699989;84;20984;-83
2022/11/04 01:07:25;;;;;;;17.23;11.50;;;;;;;9.79;76.02;99630.72;1699594;84;21516;-82
2022/11/04 01:09:52;;;;;;;17.93;10.67;;;;;;;9.76;76.17;99629.09;1699934;84;21470;-81
2022/11/04 01:12:19;;;;;;;17.73;10.53;;;;;;;9.75;76.23;99631.77;1699616;84;21036;-82
2022/11/04 01:14:48;;;;;;;19.87;11.17;;;;;;;9.73;76.36;99624.00;1699941;84;21119;-82
2022/11/04 01:17:15;;;;;;;19.37;11.13;;;;;;;9.75;76.72;99621.29;1699900;84;21530;-81
2022/11/04 01:19:43;;;;;;;19.27;10.77;;;;;;;9.77;76.98;99616.38;1699628;84;20984;-81
2022/11/04 01:22:10;;;;;;;18.13;10.23;;;;;;;9.80;76.72;99619.31;1699839;84;21044;-82
2022/11/04 01:24:37;;;;;;;18.67;10.63;;;;;;;9.76;76.85;99613.38;1699707;84;21013;-81
2022/11/04 01:27:04;;;;;;;21.03;10.90;;;;;;;9.75;76.87;99614.28;1699839;84;21954;-81
2022/11/04 01:29:31;;;;;;;18.47;10.17;;;;;;;9.72;76.80;99608.35;1699588;84;21008;-82
2022/11/04 01:31:58;;;;;;;16.63;10.23;;;;;;;9.61;76.40;99607.06;1699552;84;20992;-81
2022/11/04 01:34:25;;;;;;;15.73;9.83;;;;;;;9.51;76.38;99601.89;1699567;84;21008;-82
2022/11/04 01:36:52;;;;;;;18.30;10.17;;;;;;;9.46;76.51;99596.47;1669925;85;21074;-82
2022/11/04 01:39:19;;;;;;;16.93;10.53;;;;;;;9.37;76.43;99597.74;1669986;85;21920;-81
2022/11/04 01:41:46;;;;;;;17.47;9.87;;;;;;;9.27;76.40;99596.45;1669861;85;21040;-81
2022/11/04 01:44:50;;;;;;;16.90;9.70;;;;;;;9.20;76.30;99598.92;1699466;84;21013;-81
2022/11/04 01:47:23;;;;;;;15.90;9.63;;;;;;;9.10;76.39;99598.50;1665020;85;21066;-82
2022/11/04 01:50:01;;;;;;;19.00;10.77;;;;;;;9.00;76.55;99595.42;1693348;83;21027;-81
2022/11/04 01:52:33;;;;;;;14.53;8.97;;;;;;;8.99;76.93;99598.12;1695784;83;21857;-81
2022/11/04 01:55:06;;;;;;;16.10;9.40;;;;;;;8.94;77.04;99599.61;1669818;85;21047;-83
2022/11/04 01:57:38;;;;;;;13.10;8.60;;;;;;;8.90;77.47;99587.61;1699775;84;20993;-82
2022/11/04 02:00:08;;;;;;;13.33;8.33;;;;;;;8.85;77.36;99600.02;1670015;85;21023;-82
2022/11/04 02:02:55;;;;;;;14.57;9.00;;;;;;;8.78;77.51;99590.73;1699815;84;20996;-82
2022/11/04 02:05:22;;;;;;;14.60;9.43;;;;;;;8.68;77.34;99589.82;1669829;85;21839;-81
2022/11/04 02:07:54;;;;;;;20.67;10.00;;;;;;;8.60;77.67;99584.06;1699784;84;21431;-82
2022/11/04 02:10:26;;;;;;;17.00;9.53;;;;;;;8.58;78.10;99580.66;1699627;84;21051;-82
2022/11/04 02:12:55;;;;;;;15.77;9.40;;;;;;;8.57;78.35;99579.44;1670154;85;21059;-81
2022/11/04 02:15:56;;;;;;;13.90;9.20;;;;;;;8.50;78.16;99573.60;1699572;84;21012;-83
2022/11/04 02:18:54;;;;;;;15.23;9.90;;;;;;;8.41;78.26;99576.14;1665562;84;21119;-82
2022/11/04 02:21:32;;;;;;;15.33;10.27;;;;;;;8.37;78.52;99571.06;1700209;83;21065;-81
2022/11/04 02:24:22;;;;;;;15.57;9.87;;;;;;;8.31;78.79;99573.47;1681433;85;21027;-82
2022/11/04 02:27:16;;;;;;;17.57;10.10;;;;;;;8.28;78.76;99572.30;1699662;83;21539;-82
2022/11/04 02:29:54;;;;;;;15.67;9.30;;;;;;;8.26;78.94;99572.38;1669887;85;21039;-81
2022/11/04 02:32:58;;;;;;;19.37;9.57;;;;;;;8.22;78.82;99573.86;1699503;84;21944;-82
2022/11/04 02:35:40;;;;;;;13.90;9.47;;;;;;;8.18;78.79;99577.52;1669653;85;21015;-82
2022/11/04 02:38:27;;;;;;;15.33;9.47;;;;;;;8.08;78.66;99572.27;1699308;84;21059;-83
2022/11/04 02:41:18;;;;;;;14.10;8.77;;;;;;;8.01;78.63;99573.82;1670071;85;21036;-82
2022/11/04 02:43:56;;;;;;;14.83;8.80;;;;;;;7.92;78.14;99570.71;1698810;84;21514;-81
2022/11/04 02:46:46;;;;;;;15.50;9.20;;;;;;;7.83;78.56;99573.23;1670008;85;21109;-81
2022/11/04 02:49:19;;;;;;;15.70;9.77;;;;;;;7.77;78.38;99567.80;1699379;84;21470;-82
2022/11/04 02:52:06;;;;;;;13.93;9.60;;;;;;;7.73;79.08;99557.53;1669581;85;21024;-81
2022/11/04 02:54:50;;;;;;;16.57;9.93;;;;;;;7.71;79.11;99552.39;1658433;84;21032;-81
2022/11/04 02:57:22;;;;;;;17.40;10.67;;;;;;;7.65;79.24;99551.76;1670144;85;21059;-81
2022/11/04 03:00:03;;;;;;;17.67;10.27;;;;;;;7.62;79.63;99550.14;1670037;85;21118;-81
2022/11/04 03:02:38;;;;;;;17.33;9.93;;;;;;;7.58;79.60;99552.00;1670061;85;21071;-82
2022/11/04 03:05:12;;;;;;;19.63;10.20;;;;;;;7.53;79.42;99553.92;1699493;84;20928;-81
2022/11/04 03:07:42;;;;;;;16.17;10.13;;;;;;;7.48;79.46;99554.59;1699611;84;21036;-81
2022/11/04 03:10:17;;;;;;;17.10;10.58;;;;;;;7.44;79.44;99550.84;1699949;84;21008;-82
2022/11/04 03:12:56;;;;;;;17.57;10.50;;;;;;;7.40;79.68;99548.81;1697836;84;21989;-81
2022/11/04 03:15:28;;;;;;;15.37;10.10;;;;;;;7.35;79.62;99545.52;1699554;84;21011;-81
2022/11/04 03:18:33;;;;;;;16.67;10.13;;;;;;;7.33;79.67;99548.63;1699607;84;21011;-82
2022/11/04 03:21:04;;;;;;;16.17;10.00;;;;;;;7.25;79.49;99540.23;1699680;84;21532;-82
2022/11/04 03:23:33;;;;;;;16.67;10.93;;;;;;;7.20;80.02;99527.37;1699522;84;21023;-81
2022/11/04 03:26:14;;;;;;;17.90;10.43;;;;;;;7.19;80.29;99526.98;1699746;84;22124;-82
2022/11/04 03:28:52;;;;;;;18.10;10.07;;;;;;;7.16;80.25;99523.19;1665144;84;21011;-81
2022/11/04 03:31:25;;;;;;;16.87;10.00;;;;;;;7.15;80.60;99518.90;1698183;84;21000;-82
2022/11/04 03:33:54;;;;;;;18.47;10.77;;;;;;;7.13;80.33;99516.34;1699198;84;21056;-82
2022/11/04 03:36:22;;;;;;;19.00;11.03;;;;;;;7.08;80.45;99508.30;1699761;84;21276;-81
2022/11/04 03:38:51;;;;;;;18.73;11.03;;;;;;;7.09;80.96;99516.49;1699469;84;21150;-81
2022/11/04 03:41:26;;;;;;;16.87;10.87;;;;;;;7.09;80.81;99515.19;1699703;84;20988;-83
2022/11/04 03:43:53;;;;;;;18.27;11.27;;;;;;;7.07;80.79;99515.27;1698704;84;20897;-81
2022/11/04 03:46:21;;;;;;;16.47;11.17;;;;;;;7.06;80.94;99512.70;1699738;84;21060;-82
2022/11/04 03:48:52;;;;;;;17.97;10.77;;;;;;;7.03;80.83;99520.63;1682403;84;21036;-82
2022/11/04 03:51:19;;;;;;;16.70;10.50;;;;;;;7.00;80.80;99528.56;1699670;84;21942;-83
2022/11/04 03:53:47;;;;;;;16.87;9.87;;;;;;;6.96;80.70;99532.20;1699330;84;20989;-82
2022/11/04 03:56:47;;;;;;;17.37;11.07;;;;;;;6.93;80.61;99534.00;1670082;85;20999;-83
2022/11/04 03:59:39;;;;;;;17.48;10.30;;;;;;;6.93;80.91;99526.19;1670015;85;21008;-83
2022/11/04 04:02:31;;;;;;;15.90;9.43;;;;;;;6.90;80.92;99518.48;1670166;85;21537;-83
2022/11/04 04:05:09;;;;;;;15.63;10.57;;;;;;;6.86;80.70;99512.97;1697856;84;21060;-83
2022/11/04 04:07:46;;;;;;;15.47;10.47;;;;;;;6.87;80.96;99508.18;1698900;84;20992;-82
2022/11/04 04:10:39;;;;;;;15.80;10.07;;;;;;;6.82;80.69;99510.55;1699207;83;21011;-83
2022/11/04 04:13:17;;;;;;;18.23;10.50;;;;;;;6.75;80.69;99509.91;1699794;84;20992;-83
2022/11/04 04:15:55;;;;;;;17.77;9.83;;;;;;;6.72;80.85;99508.72;1699428;84;20965;-83
2022/11/04 04:18:30;;;;;;;18.73;10.67;;;;;;;6.67;80.74;99513.23;1670173;85;21040;-83
2022/11/04 04:21:00;;;;;;;15.23;10.90;;;;;;;6.62;80.78;99512.11;1669839;85;21011;-83
2022/11/04 04:29:07;;;;;;;15.33;10.37;;;;;;;6.55;81.32;99505.41;1669788;85;21014;-82
2022/11/04 04:31:49;;;;;;;15.87;9.77;;;;;;;6.55;81.35;99505.41;1669728;85;22287;-82
2022/11/04 04:34:29;;;;;;;17.03;11.07;;;;;;;6.53;81.28;99505.91;1699255;84;21028;-82
2022/11/04 04:37:16;;;;;;;18.75;12.30;;;;;;;6.54;81.65;99503.72;1699652;84;20988;-82
2022/11/04 04:45:39;;;;;;;21.00;12.83;;;;;;;6.74;83.65;99493.89;1699391;84;22050;-82
2022/11/04 04:48:09;;;;;;;17.80;12.33;;;;;;;6.79;83.49;99496.31;1685824;84;21010;-82
2022/11/04 04:50:42;;;;;;;21.40;12.65;;;;;;;6.84;83.68;99487.89;1697094;84;21557;-82
2022/11/04 04:53:10;;;;;;;19.20;13.23;;;;;;;6.89;83.69;99491.17;1699562;84;20992;-82
2022/11/04 04:55:37;;;;;;;19.70;12.67;;;;;;;6.92;83.86;99484.55;1699507;84;21067;-82
2022/11/04 04:58:04;;;;;;;17.33;12.10;;;;;;;6.91;83.35;99485.01;1699412;84;21124;-82
2022/11/04 05:00:32;;;;;;;22.40;12.80;;;;;;;6.91;83.21;99486.31;1699414;84;21000;-82
2022/11/04 05:02:59;;;;;;;15.30;11.10;;;;;;;6.87;82.91;99483.44;1699334;84;21048;-82
2022/11/04 05:05:26;;;;;;;21.37;12.73;;;;;;;6.83;82.61;99487.04;1699467;84;21008;-82
2022/11/04 05:07:53;;;;;;;17.03;10.87;;;;;;;6.79;82.79;99481.98;1699506;84;21015;-82
2022/11/04 05:10:20;;;;;;;15.63;10.23;;;;;;;6.76;82.34;99484.28;1699361;84;21147;-83
2022/11/04 05:15:34;;;;;;;18.73;11.87;;;;;;;6.69;82.22;99483.63;1699424;84;21079;-82
2022/11/04 05:18:02;;;;;;;16.57;10.37;;;;;;;6.63;82.15;99477.80;1699396;84;21059;-81
2022/11/04 05:20:32;;;;;;;14.33;10.00;;;;;;;6.56;81.84;99481.52;1699423;84;21302;-82
2022/11/04 05:22:59;;;;;;;16.07;10.00;;;;;;;6.50;81.96;99478.68;1699636;84;21120;-81
2022/11/04 05:25:26;;;;;;;14.57;10.67;;;;;;;6.47;82.13;99485.30;1699338;84;21075;-82
2022/11/04 05:28:01;;;;;;;15.07;9.80;;;;;;;6.47;82.28;99478.33;1699585;84;21593;-80
2022/11/04 05:30:28;;;;;;;16.83;10.30;;;;;;;6.43;82.04;99479.36;1683977;84;21028;-80
2022/11/04 05:32:55;;;;;;;15.93;10.33;;;;;;;6.37;82.11;99481.30;1693835;84;21020;-80
2022/11/04 05:35:22;;;;;;;14.40;9.40;;;;;;;6.34;82.32;99484.86;1689824;84;21135;-80
2022/11/04 05:37:49;;;;;;;19.40;11.17;;;;;;;6.34;82.39;99482.72;1723989;83;21005;-80
2022/11/04 05:40:16;;;;;;;20.27;12.20;;;;;;;6.31;82.25;99484.97;1724531;83;21005;-80
2022/11/04 05:42:43;;;;;;;18.60;11.07;;;;;;;6.29;82.59;99480.29;1724371;83;21048;-80
2022/11/04 05:45:10;;;;;;;19.33;12.60;;;;;;;6.29;82.71;99480.72;1724124;83;21068;-80
2022/11/04 05:47:37;;;;;;;18.13;11.30;;;;;;;6.29;82.67;99482.89;1716647;83;21358;-80
2022/11/04 05:50:05;;;;;;;18.20;11.37;;;;;;;6.26;82.56;99480.36;1717170;83;21325;-79
2022/11/04 05:52:32;;;;;;;19.40;11.80;;;;;;;6.23;82.37;99476.11;1724365;83;21476;-80
2022/11/04 05:54:59;;;;;;;26.60;12.30;;;;;;;6.19;82.28;99484.94;1724086;83;21462;-79
2022/11/04 05:57:26;;;;;;;18.20;11.27;;;;;;;6.18;82.44;99489.76;1723840;83;21001;-79
2022/11/04 05:59:53;;;;;;;21.70;13.17;;;;;;;6.18;82.56;99492.36;1719863;83;21142;-80
2022/11/04 06:02:19;;;;;;;18.87;11.50;;;;;;;6.14;82.24;99489.44;1723795;83;21004;-80
2022/11/04 06:04:46;;;;;;;20.23;12.00;;;;;;;6.15;82.72;99494.19;1724177;83;21016;-79
2022/11/04 06:07:13;;;;;;;25.60;13.97;;;;;;;6.17;82.95;99491.09;1724015;83;21062;-86
2022/11/04 06:09:40;;;;;;;21.00;12.93;;;;;;;6.19;82.98;99491.91;1724437;83;21004;-77
2022/11/04 06:12:14;;;;;;;22.33;13.17;;;;;;;6.19;82.89;99495.34;1714159;83;21929;-77
2022/11/04 06:14:43;;;;;;;19.87;12.00;;;;;;;6.20;82.84;99500.94;1708895;83;21578;-78
2022/11/04 06:17:19;;;;;;;25.67;15.10;;;;;;;6.19;82.80;99501.01;1724139;83;21016;-78
2022/11/04 06:19:46;;;;;;;16.57;11.97;;;;;;;6.19;82.83;99502.31;1720853;83;21435;-86
2022/11/04 06:22:15;;;;;;;17.57;12.03;;;;;;;6.23;83.35;99503.44;1720688;83;21014;-83
2022/11/04 06:24:43;;;;;;;18.53;11.80;;;;;;;6.27;83.33;99509.87;1693796;84;21115;-72
2022/11/04 06:27:10;;;;;;;20.77;11.77;;;;;;;6.26;83.15;99507.69;1693664;84;21244;-74
2022/11/04 06:29:42;;;;;;;18.00;11.77;;;;;;;6.30;83.32;99518.87;1693646;84;21633;-75
2022/11/04 06:32:08;;;;;;;18.07;11.13;;;;;;;6.27;82.94;99525.48;1682936;84;21738;-74
2022/11/04 06:34:36;;;;;;;25.60;14.37;;;;;;;6.25;82.84;99535.47;1722202;82;21057;-74
2022/11/04 06:37:03;;;;;;;21.70;13.93;;;;;;;6.26;83.64;99541.52;1693819;84;21125;-74
2022/11/04 06:39:30;;;;;;;30.53;17.50;;;;;;;6.35;84.50;99558.16;1693316;84;21016;-74
2022/11/04 06:41:57;;;;;;;26.70;16.53;;;;;;;6.49;85.50;99572.01;1682488;84;21016;-74
2022/11/04 06:44:24;;;;;;;28.20;17.80;;;;;;;6.63;86.00;99576.30;1693869;84;20985;-74
2022/11/04 06:46:51;;;;;;;29.10;17.17;;;;;;;6.77;86.69;99569.77;1692530;84;21028;-74
2022/11/04 06:49:21;;;;;;;27.10;16.47;;;;;;;6.90;87.03;99559.30;1718156;83;21915;-74
2022/11/04 06:51:49;;;;;;;27.87;16.43;;;;;;;7.06;87.59;99547.42;1693791;84;21083;-82
2022/11/04 06:54:17;;;;;;;27.40;16.83;;;;;;;7.20;87.40;99557.80;1693717;84;21486;-75
2022/11/04 06:56:44;;;;;;;28.63;17.63;;;;;;;7.29;87.09;99569.22;1694151;84;21072;-75
2022/11/04 06:59:17;;;;;;;27.20;17.30;;;;;;;7.33;87.04;99571.63;1693499;84;21040;-80
2022/11/04 07:01:45;;;;;;;25.00;16.13;;;;;;;7.43;87.27;99561.72;1691408;84;21152;-78
2022/11/04 07:04:13;;;;;;;21.80;15.13;;;;;;;7.55;87.47;99563.02;1719851;82;20930;-73
2022/11/04 07:06:43;;;;;;;27.07;15.73;;;;;;;7.63;87.01;99575.77;1715132;82;21288;-75
2022/11/04 07:09:12;;;;;;;;;;;;;;;7.70;86.89;99583.73;1717674;82;21103;-75
2022/11/04 07:11:39;;;;;;;24.27;14.70;;;;;;;7.76;87.29;99576.55;1717072;82;20546;-75
2022/11/04 07:14:07;;;;;;;29.00;15.90;;;;;;;7.85;87.28;99570.11;1673054;84;21975;-75
2022/11/04 07:16:34;;;;;;;25.60;16.30;;;;;;;7.97;87.62;99575.30;1715019;82;21058;-75
2022/11/04 07:19:02;;;;;;;24.33;16.53;;;;;;;8.07;87.46;99588.39;1717526;82;21042;-78
2022/11/04 07:21:29;;;;;;;26.40;16.67;;;;;;;8.16;87.40;99585.40;1715204;82;21034;-78
2022/11/04 07:23:56;;;;;;;25.80;16.13;;;;;;;8.24;87.45;99587.25;1715331;82;21110;-79
2022/11/04 07:26:23;;;;;;;26.07;15.87;;;;;;;8.33;87.43;99593.85;1736380;82;21130;-79
2022/11/04 07:28:50;;;;;;;29.73;18.13;;;;;;;8.43;87.55;99595.68;1737172;82;21055;-79
2022/11/04 07:31:17;;;;;;;24.23;16.63;;;;;;;8.55;87.71;99591.70;1734189;82;21027;-79
2022/11/04 07:33:48;;;;;;;26.60;17.20;;;;;;;8.66;87.73;99585.11;1739332;82;20995;-79
2022/11/04 07:36:13;;;;;;;26.53;16.93;;;;;;;8.74;87.62;99584.80;1725376;82;21493;-79
2022/11/04 07:38:40;;;;;;;26.83;18.53;;;;;;;8.82;87.51;99582.70;1739361;82;21293;-79
2022/11/04 07:41:07;;;;;;;26.33;16.83;;;;;;;8.91;87.55;99575.77;1732723;82;21564;-79
2022/11/04 07:43:34;;;;;;;25.53;16.00;;;;;;;8.98;87.44;99575.05;1739239;82;21464;-79
2022/11/04 07:46:10;;;;;;;25.37;16.60;;;;;;;9.08;87.68;99584.64;1734757;82;21984;-78
2022/11/04 07:48:38;;;;;;;24.70;15.83;;;;;;;9.16;87.81;99573.38;1700995;82;21497;-78
2022/11/04 07:51:10;;;;;;;25.37;14.97;;;;;;;9.26;87.95;99570.76;1669842;85;21149;-79
2022/11/04 07:53:37;;;;;;;24.73;16.03;;;;;;;9.35;87.74;99563.80;1670087;85;21039;-79
2022/11/04 07:56:07;;;;;;;25.93;15.27;;;;;;;9.45;87.76;99557.70;1669904;85;21489;-79
2022/11/04 07:58:34;;;;;;;26.00;15.87;;;;;;;9.52;87.58;99562.18;1670061;85;21019;-79
2022/11/04 08:01:07;;;;;;;28.40;16.10;;;;;;;9.60;87.51;99563.98;1669785;85;21564;-79
2022/11/04 08:03:35;;;;;;;31.07;16.77;;;;;;;9.63;87.31;99566.92;1670022;85;21967;-79
2022/11/04 08:06:04;;;;;;;28.93;17.70;;;;;;;9.70;87.24;99560.47;1669714;85;20999;-79
2022/11/04 08:08:32;;;;;;;29.97;16.43;;;;;;;9.77;87.19;99564.50;1670040;85;21476;-79
2022/11/04 08:11:10;;;;;;;25.60;15.37;;;;;;;9.81;87.02;99555.14;1669762;85;20992;-79
2022/11/04 08:13:38;;;;;;;25.80;15.67;;;;;;;9.86;87.14;99549.66;1669766;85;21020;-79
2022/11/04 08:16:09;;;;;;;28.87;16.53;;;;;;;9.94;87.23;99543.60;1669729;85;21104;-79
2022/11/04 08:18:36;;;;;;;28.30;16.17;;;;;;;9.99;87.04;99542.08;1670069;85;20981;-79
2022/11/04 08:21:04;;;;;;;26.80;16.07;;;;;;;10.00;86.77;99549.88;1669853;85;21458;-79
2022/11/04 08:23:33;;;;;;;24.20;15.10;;;;;;;10.05;86.90;99549.63;1669959;85;21087;-79
2022/11/04 08:26:00;;;;;;;23.80;15.23;;;;;;;10.09;86.93;99556.44;1669868;85;21032;-79
2022/11/04 08:28:28;;;;;;;26.60;14.93;;;;;;;10.14;86.62;99557.06;1670124;85;21161;-80
2022/11/04 08:31:03;;;;;;;23.83;15.87;;;;;;;10.16;86.55;99564.36;1669744;85;21019;-79
2022/11/04 08:33:34;;;;;;;23.70;15.37;;;;;;;10.24;86.75;99560.91;1670167;85;21035;-79
2022/11/04 08:36:06;;;;;;;25.73;15.70;;;;;;;10.33;86.79;99562.72;1669215;85;21000;-79
2022/11/04 08:38:33;;;;;;;26.70;15.27;;;;;;;10.42;87.00;99563.56;1669880;85;21031;-80
2022/11/04 08:41:02;;;;;;;24.17;15.03;;;;;;;10.52;86.84;99552.18;1670027;85;21259;-79
2022/11/04 08:43:30;;;;;;;25.72;14.10;;;;;;;10.58;86.70;99555.33;1669878;85;21083;-80
2022/11/04 08:45:57;;;;;;;21.35;14.60;;;;;;;10.68;86.75;99557.03;1670047;85;21014;-79
2022/11/04 08:48:24;;;;;;;21.97;14.50;;;;;;;10.76;86.57;99550.94;1653834;85;21066;-79
2022/11/04 08:50:54;;;;;;;22.80;14.23;;;;;;;10.84;86.32;99544.84;1699601;83;21030;-80
2022/11/04 08:53:21;;;;;;;;;;;;;;;10.94;86.43;99539.95;1672279;85;21996;-79
2022/11/04 08:55:48;;;;;;;24.35;14.68;;;;;;;10.99;86.27;99543.66;1669924;85;20157;-80
2022/11/04 08:58:16;;;;;;;20.92;14.58;;;;;;;11.04;86.16;99546.88;1669827;85;21007;-79
2022/11/04 09:00:43;;;;;;;24.53;14.77;;;;;;;11.15;86.06;99541.45;1669985;85;21047;-79
2022/11/04 09:03:10;;;;;;;21.48;14.55;;;;;;;11.20;85.74;99545.16;1669773;85;21026;-80
2022/11/04 09:05:47;;;;;;;22.32;14.25;;;;;;;11.25;85.75;99545.75;1670004;85;21915;-80
2022/11/04 09:08:13;;;;;;;23.92;14.68;;;;;;;11.33;85.56;99554.50;1667616;85;21062;-79
2022/11/04 09:10:46;;;;;;;19.65;13.83;;;;;;;11.39;85.53;99548.48;1670066;85;21063;-80
2022/11/04 09:13:14;;;;;;;24.65;15.83;;;;;;;11.49;85.51;99546.19;1669739;85;21083;-79
2022/11/04 09:15:42;;;;;;;21.68;14.87;;;;;;;11.60;85.41;99549.55;1669969;85;21023;-79
2022/11/04 09:18:09;;;;;;;24.60;14.85;;;;;;;11.67;85.33;99546.98;1669910;85;21206;-79
2022/11/04 09:20:41;;;;;;;23.18;15.60;;;;;;;11.72;85.27;99537.52;1669922;85;21064;-79
2022/11/04 09:23:08;;;;;;;25.80;16.50;;;;;;;11.76;84.95;99533.33;1669866;85;21028;-80
2022/11/04 09:25:36;;;;;;;24.55;16.15;;;;;;;11.84;84.88;99528.97;1669974;85;21027;-80
2022/11/04 09:28:03;;;;;;;24.90;16.32;;;;;;;12.01;84.91;99532.83;1669828;85;21031;-79
2022/11/04 09:30:30;;;;;;;24.87;15.48;;;;;;;12.24;84.81;99531.98;1669766;85;21505;-79
2022/11/04 09:32:57;;;;;;;21.02;14.93;;;;;;;12.40;84.49;99521.43;1670023;85;21497;-80
2022/11/04 09:35:26;;;;;;;24.30;15.68;;;;;;;12.67;84.76;99521.11;1669920;85;21552;-79
2022/11/04 09:37:53;;;;;;;23.05;15.80;;;;;;;12.98;84.59;99521.89;1669826;85;21547;-79
2022/11/04 09:40:24;;;;;;;24.25;15.50;;;;;;;13.08;84.14;99520.41;1669984;85;21496;-79
2022/11/04 09:43:16;;;;;;;20.40;14.35;;;;;;;13.17;83.88;99517.19;1669816;85;21968;-79
2022/11/04 09:45:44;;;;;;;25.88;14.58;;;;;;;13.24;83.60;99525.54;1669909;85;21533;-80
2022/11/04 09:48:19;;;;;;;20.97;14.65;;;;;;;13.24;82.98;99516.80;1656070;85;21058;-79
2022/11/04 09:50:57;;;;;;;19.77;15.00;;;;;;;13.20;82.84;99520.11;1698420;83;21476;-81
2022/11/04 09:53:50;;;;;;;19.50;14.03;;;;;;;13.23;82.89;99520.39;1669849;85;20996;-79
2022/11/04 09:56:34;;;;;;;20.02;14.03;;;;;;;13.27;83.06;99505.64;1657161;85;21509;-80
2022/11/04 09:59:05;;;;;;;21.30;14.18;;;;;;;13.34;82.94;99502.17;1658620;85;21023;-80
2022/11/04 10:01:44;;;;;;;18.70;13.93;;;;;;;13.28;82.67;99503.88;1669900;85;21501;-79
2022/11/04 10:04:45;;;;;;;21.87;13.43;;;;;;;13.25;82.61;99505.36;1669259;85;21031;-80
2022/11/04 10:07:45;;;;;;;22.67;14.45;;;;;;;13.27;82.65;99500.85;1670099;85;20992;-79
2022/11/04 10:10:29;;;;;;;20.30;14.13;;;;;;;13.27;82.61;99496.43;1669649;85;21628;-80
2022/11/04 10:13:38;;;;;;;20.35;14.38;;;;;;;13.27;82.48;99495.59;1670132;85;20996;-80
2022/11/04 10:16:25;;;;;;;25.43;15.13;;;;;;;13.26;82.52;99499.17;1670332;85;21003;-80
2022/11/04 10:19:34;;;;;;;17.37;13.00;;;;;;;13.22;82.32;99502.89;1699722;84;21650;-80
2022/11/04 10:22:15;;;;;;;17.25;12.58;;;;;;;13.20;82.41;99501.69;1670157;85;21609;-80
2022/11/04 10:25:03;;;;;;;20.85;14.47;;;;;;;13.23;82.49;99493.59;1698477;83;21102;-79
2022/11/04 10:27:34;;;;;;;19.32;13.45;;;;;;;13.26;82.50;99492.59;1699469;84;21060;-80
2022/11/04 10:30:15;;;;;;;24.00;13.65;;;;;;;13.23;82.15;99499.34;1674455;84;21027;-79
2022/11/04 10:33:00;;;;;;;;;;;;;;;13.24;82.33;99498.38;1678682;84;21023;-80
2022/11/04 10:35:49;;;;;;;20.17;12.95;;;;;;;13.24;82.15;99497.91;1699063;84;20649;-80
2022/11/04 10:38:25;;;;;;;19.30;13.18;;;;;;;13.26;82.31;99505.75;1697454;83;21157;-80
2022/11/04 10:40:54;;;;;;;18.98;13.08;;;;;;;13.30;82.33;99508.55;1697216;84;21452;-80
2022/11/04 10:43:35;;;;;;;21.03;12.20;;;;;;;13.34;82.21;99516.17;1697971;84;21012;-79
2022/11/04 10:46:52;;;;;;;16.85;12.28;;;;;;;13.37;82.05;99515.98;1698074;84;21324;-80
2022/11/04 10:49:43;;;;;;;17.25;13.15;;;;;;;13.38;82.03;99520.32;1697909;84;21080;-80
2022/11/04 10:52:11;;;;;;;19.67;13.80;;;;;;;13.37;81.75;99519.09;1697164;84;21114;-79
2022/11/04 10:54:45;;;;;;;20.62;13.70;;;;;;;13.31;81.50;99516.37;1697705;84;21068;-80
2022/11/04 10:57:21;;;;;;;19.07;13.45;;;;;;;13.26;81.39;99513.17;1698068;84;21044;-80
2022/11/04 10:59:56;;;;;;;19.90;12.98;;;;;;;13.29;81.46;99512.98;1677210;84;21005;-79
2022/11/04 11:02:46;;;;;;;24.15;15.43;;;;;;;13.31;81.48;99511.11;1697703;84;21028;-79
2022/11/04 11:05:18;;;;;;;24.92;14.98;;;;;;;13.33;81.37;99507.05;1669944;84;21147;-79
2022/11/04 11:07:52;;;;;;;25.52;15.60;;;;;;;13.28;81.19;99500.77;1697348;84;21020;-80
2022/11/04 11:10:29;;;;;;;24.47;15.80;;;;;;;13.24;80.96;99501.86;1697766;84;20988;-80
2022/11/04 11:13:05;;;;;;;23.35;16.05;;;;;;;13.13;80.86;99506.47;1697798;84;20988;-80
2022/11/04 11:15:36;;;;;;;25.57;15.48;;;;;;;13.06;80.95;99509.12;1697840;84;21537;-79
2022/11/04 11:18:16;;;;;;;22.65;14.98;;;;;;;12.97;80.93;99491.28;1697722;84;21144;-80
2022/11/04 11:21:09;;;;;;;23.40;16.67;;;;;;;12.94;81.19;99491.00;1697847;84;27681;-81
2022/11/04 11:23:46;;;;;;;23.50;15.43;;;;;;;12.90;81.22;99496.05;1697688;84;20969;-80
2022/11/04 11:26:18;;;;;;;23.70;15.78;;;;;;;12.82;81.29;99498.30;1697753;84;21584;-80
2022/11/04 11:28:50;;;;;;;22.87;16.23;;;;;;;12.77;81.37;99504.30;1693998;83;20992;-79
2022/11/04 11:31:23;;;;;;;24.50;16.42;;;;;;;12.70;81.37;99509.57;1680404;85;22155;-80
2022/11/04 11:33:53;;;;;;;26.12;17.62;;;;;;;12.66;81.52;99511.98;1680101;85;21010;-80
2022/11/04 11:36:25;;;;;;;27.93;17.73;;;;;;;12.62;81.57;99511.81;1678467;85;21046;-81
2022/11/04 11:39:15;;;;;;;26.60;17.10;;;;;;;12.52;81.40;99505.40;1676836;85;21456;-80
2022/11/04 11:41:57;;;;;;;27.25;15.40;;;;;;;12.45;81.75;99507.08;1699570;83;20998;-80
2022/11/04 11:44:42;;;;;;;24.47;16.95;;;;;;;12.41;81.82;99504.72;1669804;85;21136;-80
2022/11/04 11:47:23;;;;;;;28.27;17.87;;;;;;;12.32;81.73;99507.89;1665977;85;21647;-79
2022/11/04 11:50:18;;;;;;;29.65;17.02;;;;;;;12.26;81.92;99511.25;1694098;83;21017;-79
2022/11/04 11:52:48;;;;;;;24.98;16.10;;;;;;;12.20;82.04;99512.92;1669999;85;20943;-80
2022/11/04 11:55:37;;;;;;;23.90;16.75;;;;;;;12.16;82.27;99510.08;1669916;85;21342;-80
2022/11/04 11:58:43;;;;;;;26.07;17.57;;;;;;;12.14;82.25;99505.41;1686055;84;21123;-79
2022/11/04 12:01:45;;;;;;;26.70;17.50;;;;;;;12.09;82.29;99493.00;1699614;84;21056;-80
2022/11/04 12:04:15;;;;;;;23.22;16.02;;;;;;;12.08;82.49;99483.88;1699346;84;21533;-79
2022/11/04 12:06:52;;;;;;;23.55;16.80;;;;;;;12.09;82.63;99481.18;1699547;84;21031;-78
2022/11/04 12:09:47;;;;;;;27.05;17.42;;;;;;;12.09;82.57;99481.66;1699841;84;21474;-79
2022/11/04 12:12:49;;;;;;;26.97;16.95;;;;;;;12.10;82.66;99484.64;1699692;84;21127;-78
2022/11/04 12:15:58;;;;;;;26.60;16.93;;;;;;;12.05;82.70;99500.22;1717430;83;21012;-78
2022/11/04 12:18:55;;;;;;;23.47;15.95;;;;;;;12.04;82.84;99498.98;1724458;83;21017;-76
2022/11/04 12:21:36;;;;;;;26.52;17.27;;;;;;;12.02;82.94;99489.86;1636415;87;21378;-74
2022/11/04 12:24:26;;;;;;;23.95;17.45;;;;;;;12.03;83.07;99493.36;1627015;86;21055;-76
2022/11/04 12:27:06;;;;;;;25.00;16.70;;;;;;;12.03;83.12;99495.52;1610943;87;21977;-81
2022/11/04 12:30:05;;;;;;;28.23;17.17;;;;;;;12.04;83.15;99502.92;1582752;90;21049;-76
2022/11/04 12:33:16;;;;;;;25.32;17.10;;;;;;;12.04;83.31;99489.78;1609692;89;21097;-76
2022/11/04 12:36:06;;;;;;;;;;;;;;;12.06;83.43;99481.36;1618875;86;21063;-78
2022/11/04 12:38:50;;;;;;;23.92;15.60;;;;;;;12.10;83.59;99474.98;1597790;87;27040;-81
2022/11/04 12:41:32;;;;;;;22.82;16.37;;;;;;;12.13;83.68;99466.92;1628837;86;21521;-81
2022/11/04 12:44:20;;;;;;;22.93;16.82;;;;;;;12.19;83.73;99458.70;1600745;87;20996;-79
2022/11/04 12:47:16;;;;;;;27.25;17.30;;;;;;;12.24;83.74;99456.62;1645804;86;21071;-78